Bhakkar Weather



Bhakkar's Current Weather

Temprature 26.236o light rain

light rain

Rain: 25 %

Min Temprature26.236o
Max Temprature26.236o
Humidity37
Wind Speed2.05 m/h
Sun Rise05:41:01
Sun Set18:47:40
Current Time: 21-Apr-2019 05:52:27
Lat/Lon: 31.63, 71.07




Bhakkar's Geo Location



Bhakkar's Weather Forecast

Time Overall Temp Min Temp Max Temp Humidity Wind Speed Rain
21-Apr-2019 (Sun)
08:00:00 clear sky 29.290 29.289 29.290 31 2.54 m/h 0 %
11:00:00 clear sky 33.750 33.750 33.750 22 2.58 m/h 0 %
14:00:00 clear sky 36.050 36.050 36.050 18 1.78 m/h 0 %
17:00:00 clear sky 37.050 37.050 37.050 16 3.16 m/h 0 %
20:00:00 clear sky 33.450 33.450 33.450 21 3.5 m/h 0 %
23:00:00 clear sky 31.990 31.990 31.990 23 3.51 m/h 0 %
22-Apr-2019 (Mon)
02:00:00 clear sky 29.770 29.770 29.770 27 2.06 m/h 0 %
05:00:00 clear sky 27.874 27.874 27.874 34 2.25 m/h 0 %
08:00:00 clear sky 31.016 31.016 31.016 30 1.9 m/h 0 %
11:00:00 clear sky 35.620 35.620 35.620 21 2.53 m/h 0 %
14:00:00 clear sky 38.315 38.315 38.315 15 2.24 m/h 0 %
17:00:00 clear sky 39.431 39.431 39.431 13 2.93 m/h 0 %
20:00:00 clear sky 35.350 35.350 35.350 18 3.87 m/h 0 %
23:00:00 clear sky 33.596 33.596 33.596 21 3.79 m/h 0 %
23-Apr-2019 (Tue)
02:00:00 clear sky 31.077 31.077 31.077 25 2.24 m/h 0 %
05:00:00 scattered clouds 29.736 29.736 29.736 28 2.43 m/h 0 %
08:00:00 overcast clouds 32.487 32.487 32.487 25 2.27 m/h 0 %
11:00:00 broken clouds 37.050 37.050 37.050 18 2.24 m/h 0 %
14:00:00 scattered clouds 39.750 39.750 39.750 15 2.8 m/h 0 %
17:00:00 scattered clouds 40.650 40.650 40.650 13 4.23 m/h 0 %
20:00:00 few clouds 36.428 36.428 36.428 17 3.26 m/h 0 %
23:00:00 broken clouds 34.350 34.350 34.350 22 4.54 m/h 0 %
24-Apr-2019 (Wed)
02:00:00 broken clouds 31.682 31.682 31.682 26 4.92 m/h 0 %
05:00:00 scattered clouds 29.254 29.254 29.254 31 3.86 m/h 0 %
08:00:00 clear sky 32.050 32.050 32.050 27 5.16 m/h 0 %
11:00:00 scattered clouds 36.009 36.009 36.009 19 4.94 m/h 0 %
14:00:00 overcast clouds 37.950 37.950 37.950 16 7.39 m/h 0 %
17:00:00 overcast clouds 34.950 34.950 34.950 23 6.27 m/h 0 %
20:00:00 light rain 28.855 28.855 28.855 40 11.19 m/h 75 %
23:00:00 moderate rain 26.745 26.745 26.745 50 4.83 m/h 363 %
25-Apr-2019 (Thu)
02:00:00 light rain 27.150 27.150 27.150 48 2.24 m/h 44 %
05:00:00 light rain 25.512 25.512 25.512 50 2.87 m/h 6 %
08:00:00 light rain 28.920 28.920 28.920 35 3.41 m/h 25 %
11:00:00 light rain 34.390 34.390 34.390 19 4.47 m/h 6 %
14:00:00 clear sky 36.550 36.550 36.550 15 3.15 m/h 0 %
17:00:00 light rain 35.911 35.911 35.911 17 1.48 m/h 44 %
20:00:00 light rain 31.925 31.925 31.925 29 2.94 m/h 81 %
23:00:00 light rain 30.843 30.843 30.843 31 2.67 m/h 6 %
26-Apr-2019 (Fri)
02:00:00 light rain 29.132 29.132 29.132 38 1.01 m/h 88 %
05:00:00 light rain 27.036 27.036 27.036 46 2.99 m/h 13 %


Bhakkar's Tourist Spots

Historical Places in Bhakkar

Famous Cities (60)